createdAt,value
2022-09-06T00:01:36.793Z,20.15
2022-09-06T00:04:04.692Z,20.06
2022-09-06T00:06:33.831Z,20.15
2022-09-06T00:09:02.830Z,19.94
2022-09-06T00:11:30.440Z,19.90
2022-09-06T00:13:58.103Z,19.86
2022-09-06T00:16:30.729Z,19.83
2022-09-06T00:18:58.424Z,19.92
2022-09-06T00:21:37.100Z,20.04
2022-09-06T00:24:06.409Z,20.03
2022-09-06T00:26:37.089Z,19.86
2022-09-06T00:29:04.737Z,19.90
2022-09-06T00:31:35.449Z,20.01
2022-09-06T00:34:03.609Z,20.03
2022-09-06T00:36:33.269Z,19.84
2022-09-06T00:39:00.977Z,19.92
2022-09-06T00:41:33.343Z,19.90
2022-09-06T00:44:01.223Z,19.85
2022-09-06T00:46:29.294Z,19.90
2022-09-06T00:48:58.345Z,20.21
2022-09-06T00:51:26.397Z,20.31
2022-09-06T00:53:54.044Z,20.08
2022-09-06T00:56:21.905Z,20.44
2022-09-06T00:58:51.385Z,20.32
2022-09-06T01:01:19.106Z,20.44
2022-09-06T01:03:46.928Z,20.28
2022-09-06T01:06:17.921Z,20.44
2022-09-06T01:08:48.685Z,20.57
2022-09-06T01:11:20.867Z,20.53
2022-09-06T01:13:52.862Z,20.55
2022-09-06T01:16:22.728Z,20.88
2022-09-06T01:18:59.288Z,20.54
2022-09-06T01:21:33.714Z,20.90
2022-09-06T01:24:10.927Z,21.32
2022-09-06T01:27:02.313Z,20.65
2022-09-06T01:29:32.798Z,20.69
2022-09-06T01:32:02.145Z,20.78
2022-09-06T01:34:30.578Z,20.82
2022-09-06T01:37:09.920Z,20.80
2022-09-06T01:39:38.662Z,18.13
2022-09-06T01:42:08.970Z,20.89
2022-09-06T01:44:40.854Z,21.36
2022-09-06T01:47:10.448Z,19.62
2022-09-06T01:49:40.862Z,20.96
2022-09-06T01:52:10.198Z,20.88
2022-09-06T01:54:41.828Z,21.15
2022-09-06T01:57:13.806Z,21.08
2022-09-06T01:59:55.769Z,19.71
2022-09-06T02:02:25.624Z,19.97
2022-09-06T02:04:56.850Z,20.10
2022-09-06T02:07:25.681Z,20.33
2022-09-06T02:09:54.226Z,20.54
2022-09-06T02:12:29.177Z,20.71
2022-09-06T02:15:01.757Z,21.02
2022-09-06T02:17:31.469Z,20.97
2022-09-06T02:20:00.289Z,20.74
2022-09-06T02:22:30.740Z,20.81
2022-09-06T02:24:58.373Z,20.98
2022-09-06T02:27:26.214Z,21.25
2022-09-06T02:29:54.137Z,21.33
2022-09-06T02:32:27.127Z,20.99
2022-09-06T02:34:55.443Z,21.23
2022-09-06T02:37:26.147Z,21.82
2022-09-06T02:39:54.422Z,21.08
2022-09-06T02:42:22.422Z,21.62
2022-09-06T02:44:50.314Z,21.99
2022-09-06T02:47:18.316Z,22.01
2022-09-06T02:49:52.635Z,22.14
2022-09-06T02:52:20.225Z,22.14
2022-09-06T02:54:47.910Z,22.13
2022-09-06T02:57:15.610Z,21.55
2022-09-06T02:59:43.217Z,21.35
2022-09-06T03:02:14.164Z,19.96
2022-09-06T03:04:41.841Z,21.18
2022-09-06T03:07:11.200Z,21.59
2022-09-06T03:09:40.106Z,21.96
2022-09-06T03:12:13.463Z,22.06
2022-09-06T03:14:43.986Z,22.20
2022-09-06T03:17:21.869Z,22.22
2022-09-06T03:19:49.550Z,22.10
2022-09-06T03:22:19.642Z,21.86
2022-09-06T03:24:49.344Z,21.59
2022-09-06T03:27:16.977Z,21.58
2022-09-06T03:29:44.818Z,21.39
2022-09-06T03:32:12.394Z,21.98
2022-09-06T03:34:42.068Z,21.46
2022-09-06T03:37:12.150Z,21.57
2022-09-06T03:39:41.384Z,22.08
2022-09-06T03:42:11.462Z,22.14
2022-09-06T03:44:39.214Z,22.17
2022-09-06T03:47:07.365Z,22.04
2022-09-06T03:49:37.125Z,21.98
2022-09-06T03:52:07.864Z,21.99
2022-09-06T03:54:36.120Z,22.03
2022-09-06T03:57:05.234Z,22.00
2022-09-06T03:59:33.919Z,21.70
2022-09-06T04:02:01.748Z,21.66
2022-09-06T04:04:39.244Z,21.78
2022-09-06T04:07:06.938Z,21.76
2022-09-06T04:09:44.108Z,21.66
2022-09-06T04:12:13.120Z,21.08
2022-09-06T04:14:40.863Z,20.93
2022-09-06T04:17:11.435Z,20.85
2022-09-06T04:19:39.092Z,21.17
2022-09-06T04:22:06.874Z,20.95
2022-09-06T04:24:34.916Z,21.42
2022-09-06T04:27:04.319Z,21.83
2022-09-06T04:29:36.187Z,20.88
2022-09-06T04:32:04.219Z,21.43
2022-09-06T04:34:32.121Z,20.99
2022-09-06T04:36:59.766Z,21.35
2022-09-06T04:39:27.492Z,20.99
2022-09-06T04:41:57.932Z,21.46
2022-09-06T04:44:25.545Z,20.79
2022-09-06T04:46:56.109Z,21.23
2022-09-06T04:49:24.900Z,21.44
2022-09-06T04:51:52.609Z,21.67
2022-09-06T04:54:20.293Z,21.92
2022-09-06T04:56:48.382Z,21.58
2022-09-06T04:59:16.142Z,20.99
2022-09-06T05:01:45.944Z,20.51
2022-09-06T05:04:14.960Z,20.65
2022-09-06T05:06:43.244Z,21.15
2022-09-06T05:09:18.488Z,21.53
2022-09-06T05:11:47.369Z,21.87
2022-09-06T05:14:16.685Z,21.77
2022-09-06T05:16:45.586Z,21.67
2022-09-06T05:19:17.930Z,21.13
2022-09-06T05:21:46.025Z,20.91
2022-09-06T05:24:14.114Z,20.72
2022-09-06T05:26:42.170Z,21.18
2022-09-06T05:29:09.803Z,20.97
2022-09-06T05:31:37.651Z,20.84
2022-09-06T05:34:05.649Z,20.91
2022-09-06T05:36:35.606Z,20.86
2022-09-06T05:39:03.869Z,21.13
2022-09-06T05:41:33.941Z,21.19
2022-09-06T05:44:01.745Z,21.19
2022-09-06T05:46:30.734Z,21.18
2022-09-06T05:49:01.265Z,21.49
2022-09-06T05:51:31.694Z,20.94
2022-09-06T05:54:01.845Z,21.51
2022-09-06T05:56:30.894Z,21.18
2022-09-06T05:58:58.989Z,20.95
2022-09-06T06:01:29.433Z,21.47
2022-09-06T06:03:58.058Z,21.31
2022-09-06T06:06:27.665Z,20.62
2022-09-06T06:08:55.688Z,21.10
2022-09-06T06:11:27.205Z,20.89
2022-09-06T06:13:55.003Z,20.66
2022-09-06T06:16:23.632Z,20.68
2022-09-06T06:18:52.768Z,20.37
2022-09-06T06:21:21.638Z,21.11
2022-09-06T06:23:51.700Z,20.92
2022-09-06T06:26:20.897Z,20.89
2022-09-06T06:28:50.014Z,20.92
2022-09-06T06:31:18.028Z,19.50
2022-09-06T06:33:46.635Z,20.72
2022-09-06T06:36:24.544Z,21.17
2022-09-06T06:38:53.357Z,20.81
2022-09-06T06:41:24.027Z,20.49
2022-09-06T06:44:05.284Z,20.99
2022-09-06T06:46:34.017Z,20.89
2022-09-06T06:49:02.284Z,21.11
2022-09-06T06:51:31.935Z,21.01
2022-09-06T06:54:01.135Z,20.97
2022-09-06T06:56:29.927Z,20.64
2022-09-06T06:58:59.821Z,20.91
2022-09-06T07:01:28.583Z,20.63
2022-09-06T07:03:56.659Z,20.82
2022-09-06T07:09:12.813Z,21.01
2022-09-06T07:11:40.541Z,21.02
2022-09-06T07:14:11.276Z,21.52
2022-09-06T07:16:39.358Z,21.41
2022-09-06T07:19:07.124Z,21.30
2022-09-06T07:26:33.149Z,22.30
2022-09-06T07:29:01.739Z,21.86
2022-09-06T07:34:20.843Z,22.32
2022-09-06T07:36:49.308Z,22.24
2022-09-06T07:39:16.982Z,22.75
2022-09-06T07:41:44.693Z,22.40
2022-09-06T07:44:12.553Z,22.04
2022-09-06T07:46:42.408Z,22.18
2022-09-06T07:49:13.095Z,21.57
2022-09-06T07:51:43.732Z,22.70
2022-09-06T07:54:29.991Z,22.50
2022-09-06T07:57:01.430Z,22.90
2022-09-06T07:59:29.275Z,23.05
2022-09-06T08:01:59.797Z,23.18
2022-09-06T08:04:27.531Z,23.33
2022-09-06T08:09:47.787Z,23.44
2022-09-06T08:12:18.547Z,23.55
2022-09-06T08:14:48.607Z,23.45
2022-09-06T08:17:17.678Z,23.25
2022-09-06T08:19:59.282Z,23.46
2022-09-06T08:22:31.893Z,23.71
2022-09-06T08:25:02.520Z,23.81
2022-09-06T08:27:30.707Z,24.06
2022-09-06T08:29:58.530Z,24.42
2022-09-06T08:32:28.591Z,24.23
2022-09-06T08:34:56.361Z,24.58
2022-09-06T08:37:27.388Z,24.88
2022-09-06T08:39:55.557Z,25.31
2022-09-06T08:42:23.496Z,25.27
2022-09-06T08:44:55.111Z,25.42
2022-09-06T08:47:23.912Z,25.28
2022-09-06T08:49:54.757Z,24.95
2022-09-06T08:52:27.284Z,24.74
2022-09-06T08:54:55.793Z,25.67
2022-09-06T08:57:29.657Z,25.87
2022-09-06T08:59:59.715Z,25.56
2022-09-06T09:02:28.317Z,25.59
2022-09-06T09:04:58.412Z,25.16
2022-09-06T09:07:33.317Z,25.32
2022-09-06T09:10:01.065Z,25.48
2022-09-06T09:12:31.830Z,25.87
2022-09-06T09:15:01.839Z,25.58
2022-09-06T09:17:31.004Z,25.52
2022-09-06T09:20:02.022Z,25.89
2022-09-06T09:22:29.942Z,26.10
2022-09-06T09:24:58.691Z,25.95
2022-09-06T09:27:28.045Z,26.42
2022-09-06T09:32:50.387Z,26.13
2022-09-06T09:35:27.785Z,26.50
2022-09-06T09:38:09.464Z,25.23
2022-09-06T09:40:45.833Z,26.67
2022-09-06T09:43:15.796Z,26.82
2022-09-06T09:45:43.461Z,26.57
2022-09-06T09:48:18.984Z,27.37
2022-09-06T09:50:48.187Z,26.32
2022-09-06T09:53:16.548Z,26.90
2022-09-06T09:55:44.143Z,26.93
2022-09-06T09:58:20.981Z,27.49
2022-09-06T10:00:49.019Z,27.43
2022-09-06T10:03:17.366Z,26.99
2022-09-06T10:06:02.071Z,27.60
2022-09-06T10:08:35.950Z,27.50
2022-09-06T10:11:03.599Z,28.33
2022-09-06T10:13:31.631Z,28.24
2022-09-06T10:16:03.411Z,27.98
2022-09-06T10:18:31.775Z,28.59
2022-09-06T10:21:01.223Z,27.96
2022-09-06T10:26:24.744Z,27.36
2022-09-06T10:28:52.380Z,27.92
2022-09-06T10:31:38.060Z,27.30
2022-09-06T10:34:12.898Z,27.81
2022-09-06T10:36:41.245Z,28.22
2022-09-06T10:39:16.819Z,28.28
2022-09-06T10:41:49.194Z,28.36
2022-09-06T10:44:21.087Z,28.40
2022-09-06T10:46:49.324Z,28.65
2022-09-06T10:49:19.153Z,28.52
2022-09-06T10:51:50.848Z,28.26
2022-09-06T10:54:21.297Z,28.26
2022-09-06T10:56:52.366Z,28.24
2022-09-06T10:59:36.641Z,28.55
2022-09-06T11:02:10.804Z,28.70
2022-09-06T11:07:30.114Z,28.69
2022-09-06T11:09:59.846Z,28.21
2022-09-06T11:12:37.819Z,28.38
2022-09-06T11:15:06.190Z,28.42
2022-09-06T11:17:34.756Z,28.46
2022-09-06T11:20:03.578Z,28.75
2022-09-06T11:22:46.071Z,29.09
2022-09-06T11:25:22.978Z,28.94
2022-09-06T11:27:53.972Z,29.30
2022-09-06T11:30:26.796Z,28.96
2022-09-06T11:33:04.029Z,28.79
2022-09-06T11:35:32.679Z,28.57
2022-09-06T11:38:04.761Z,28.71
2022-09-06T11:40:39.093Z,28.36
2022-09-06T11:43:19.207Z,28.17
2022-09-06T11:45:48.395Z,27.83
2022-09-06T11:48:38.023Z,27.61
2022-09-06T11:51:10.674Z,27.49
2022-09-06T11:53:55.874Z,27.35
2022-09-06T11:56:33.574Z,27.08
2022-09-06T11:59:06.294Z,27.20
2022-09-06T12:01:36.591Z,27.12
2022-09-06T12:04:15.507Z,26.94
2022-09-06T12:06:58.603Z,26.59
2022-09-06T12:09:33.355Z,26.53
2022-09-06T12:12:03.385Z,26.67
2022-09-06T12:14:32.234Z,26.91
2022-09-06T12:17:27.652Z,26.69
2022-09-06T12:20:08.378Z,24.21
2022-09-06T12:22:52.230Z,24.99
2022-09-06T12:25:21.066Z,24.57
2022-09-06T12:27:56.644Z,24.27
2022-09-06T12:30:37.357Z,24.79
2022-09-06T12:33:10.936Z,25.18
2022-09-06T12:38:28.560Z,25.09
2022-09-06T12:40:59.098Z,25.26
2022-09-06T12:43:37.570Z,25.54
2022-09-06T12:46:07.693Z,25.85
2022-09-06T12:48:39.121Z,25.88
2022-09-06T12:51:07.397Z,25.78
2022-09-06T12:53:35.282Z,25.97
2022-09-06T12:56:03.419Z,25.61
2022-09-06T12:58:34.567Z,24.67
2022-09-06T13:01:07.250Z,25.21
2022-09-06T13:03:38.731Z,25.03
2022-09-06T13:06:10.114Z,24.69
2022-09-06T13:08:40.240Z,24.23
2022-09-06T13:11:10.631Z,23.98
2022-09-06T13:13:45.691Z,23.16
2022-09-06T13:16:13.431Z,23.16
2022-09-06T13:18:41.119Z,22.85
2022-09-06T13:21:11.657Z,22.87
2022-09-06T13:23:45.146Z,23.45
2022-09-06T13:26:13.087Z,24.06
2022-09-06T13:28:45.223Z,24.19
2022-09-06T13:31:30.820Z,24.60
2022-09-06T13:34:01.104Z,24.88
2022-09-06T13:36:33.408Z,24.23
2022-09-06T13:39:04.464Z,24.74
2022-09-06T13:41:39.490Z,24.92
2022-09-06T13:44:19.151Z,24.44
2022-09-06T13:46:46.968Z,24.37
2022-09-06T13:49:17.366Z,23.90
2022-09-06T13:51:45.148Z,24.50
2022-09-06T13:54:26.715Z,24.52
2022-09-06T13:56:54.560Z,24.22
2022-09-06T13:59:25.017Z,23.92
2022-09-06T14:02:00.772Z,23.76
2022-09-06T14:04:28.822Z,24.05
2022-09-06T14:06:59.374Z,23.97
2022-09-06T14:09:27.118Z,23.71
2022-09-06T14:11:55.325Z,23.21
2022-09-06T14:14:31.877Z,22.84
2022-09-06T14:16:59.861Z,23.11
2022-09-06T14:19:28.185Z,22.83
2022-09-06T14:21:55.982Z,23.10
2022-09-06T14:24:32.880Z,23.24
2022-09-06T14:27:00.569Z,23.30
2022-09-06T14:29:29.631Z,23.17
2022-09-06T14:31:57.234Z,23.17
2022-09-06T14:34:25.740Z,23.07
2022-09-06T14:36:53.539Z,22.60
2022-09-06T14:39:21.550Z,22.43
2022-09-06T14:41:50.760Z,22.61
2022-09-06T14:44:21.931Z,22.51
2022-09-06T14:46:53.590Z,22.67
2022-09-06T14:49:22.215Z,22.66
2022-09-06T14:51:50.271Z,22.07
2022-09-06T14:54:24.132Z,21.99
2022-09-06T14:56:55.386Z,21.62
2022-09-06T14:59:26.186Z,21.97
2022-09-06T15:01:56.382Z,22.46
2022-09-06T15:04:27.073Z,21.80
2022-09-06T15:06:57.317Z,21.82
2022-09-06T15:09:27.819Z,22.15
2022-09-06T15:11:55.596Z,22.31
2022-09-06T15:14:26.577Z,22.54
2022-09-06T15:17:00.839Z,22.93
2022-09-06T15:19:32.260Z,23.43
2022-09-06T15:21:59.963Z,23.83
2022-09-06T15:24:39.506Z,23.93
2022-09-06T15:27:07.155Z,24.72
2022-09-06T15:29:38.247Z,25.65
2022-09-06T15:32:10.618Z,25.56
2022-09-06T15:34:38.360Z,25.25
2022-09-06T15:37:06.044Z,25.33
2022-09-06T15:39:34.965Z,25.20
2022-09-06T15:42:02.847Z,25.23
2022-09-06T15:44:30.796Z,25.00
2022-09-06T15:46:59.257Z,24.45
2022-09-06T15:49:33.122Z,24.32
2022-09-06T15:52:05.008Z,24.10
2022-09-06T15:54:50.167Z,24.17
2022-09-06T15:57:19.094Z,24.64
2022-09-06T15:59:46.868Z,23.93
2022-09-06T16:02:17.567Z,23.60
2022-09-06T16:04:46.931Z,23.69
2022-09-06T16:07:16.947Z,23.88
2022-09-06T16:09:46.803Z,24.66
2022-09-06T16:12:28.576Z,24.30
2022-09-06T16:14:56.214Z,24.12
2022-09-06T16:17:27.403Z,23.43
2022-09-06T16:19:58.004Z,23.75
2022-09-06T16:22:26.714Z,23.60
2022-09-06T16:24:54.409Z,23.25
2022-09-06T16:27:24.245Z,23.41
2022-09-06T16:29:52.869Z,23.65
2022-09-06T16:32:20.728Z,23.67
2022-09-06T16:34:51.627Z,24.20
2022-09-06T16:37:20.850Z,24.53
2022-09-06T16:39:52.202Z,24.93
2022-09-06T16:42:20.065Z,24.72
2022-09-06T16:44:47.943Z,25.07
2022-09-06T16:47:16.742Z,24.84
2022-09-06T16:49:46.137Z,25.39
2022-09-06T16:52:19.137Z,24.93
2022-09-06T16:54:50.063Z,25.39
2022-09-06T16:57:19.814Z,25.32
2022-09-06T16:59:48.641Z,25.10
2022-09-06T17:02:16.391Z,25.19
2022-09-06T17:04:44.224Z,25.50
2022-09-06T17:07:14.139Z,25.08
2022-09-06T17:09:49.994Z,25.56
2022-09-06T17:12:29.325Z,24.65
2022-09-06T17:14:57.723Z,24.52
2022-09-06T17:17:24.618Z,24.52
2022-09-06T17:19:57.581Z,25.14
2022-09-06T17:22:38.171Z,25.17
2022-09-06T17:25:08.619Z,25.30
2022-09-06T17:27:38.018Z,25.37
2022-09-06T17:30:06.089Z,25.29
2022-09-06T17:32:36.581Z,25.34
2022-09-06T17:35:05.523Z,25.08
2022-09-06T17:37:33.580Z,24.92
2022-09-06T17:40:01.742Z,24.75
2022-09-06T17:42:32.788Z,24.59
2022-09-06T17:45:02.199Z,24.60
2022-09-06T17:47:29.952Z,24.68
2022-09-06T17:49:58.746Z,24.72
2022-09-06T17:52:30.243Z,24.56
2022-09-06T17:54:59.158Z,24.46
2022-09-06T17:57:28.174Z,24.32
2022-09-06T17:59:55.890Z,24.28
2022-09-06T18:02:26.682Z,24.24
2022-09-06T18:04:56.013Z,23.90
2022-09-06T18:07:23.902Z,24.02
2022-09-06T18:09:51.690Z,23.86
2022-09-06T18:12:30.649Z,23.70
2022-09-06T18:15:02.040Z,23.75
2022-09-06T18:17:32.578Z,23.75
2022-09-06T18:20:02.603Z,23.91
2022-09-06T18:22:30.335Z,23.92
2022-09-06T18:25:05.748Z,23.99
2022-09-06T18:27:34.339Z,23.93
2022-09-06T18:30:04.637Z,24.00
2022-09-06T18:32:40.912Z,23.71
2022-09-06T18:35:10.987Z,23.96
2022-09-06T18:37:38.855Z,23.96
2022-09-06T18:40:07.232Z,23.91
2022-09-06T18:42:35.419Z,23.76
2022-09-06T18:45:03.274Z,23.77
2022-09-06T18:47:33.848Z,23.76
2022-09-06T18:50:04.530Z,23.76
2022-09-06T18:52:32.695Z,23.48
2022-09-06T18:55:02.461Z,22.92
2022-09-06T18:57:31.461Z,23.30
2022-09-06T18:59:59.152Z,23.43
2022-09-06T19:02:27.868Z,23.40
2022-09-06T19:04:56.055Z,23.28
2022-09-06T19:07:29.870Z,23.12
2022-09-06T19:09:58.005Z,23.06
2022-09-06T19:12:28.703Z,23.05
2022-09-06T19:14:56.543Z,22.85
2022-09-06T19:17:24.274Z,22.78
2022-09-06T19:19:52.386Z,22.45
2022-09-06T19:22:22.437Z,22.66
2022-09-06T19:24:51.487Z,22.89
2022-09-06T19:27:19.236Z,22.42
2022-09-06T19:29:49.543Z,22.25
2022-09-06T19:32:19.218Z,22.09
2022-09-06T19:34:46.936Z,22.12
2022-09-06T19:37:17.460Z,22.33
2022-09-06T19:39:45.245Z,22.33
2022-09-06T19:42:17.512Z,22.55
2022-09-06T19:44:45.339Z,22.25
2022-09-06T19:47:20.755Z,22.56
2022-09-06T19:49:48.567Z,22.40
2022-09-06T19:52:16.346Z,21.88
2022-09-06T19:54:45.918Z,21.98
2022-09-06T19:57:13.637Z,21.55
2022-09-06T19:59:45.695Z,21.84
2022-09-06T20:02:13.898Z,21.52
2022-09-06T20:04:41.564Z,21.30
2022-09-06T20:07:09.317Z,21.35
2022-09-06T20:09:37.096Z,21.21
2022-09-06T20:12:04.987Z,21.17
2022-09-06T20:14:32.713Z,20.76
2022-09-06T20:17:31.767Z,20.84
2022-09-06T20:19:51.734Z,21.24
2022-09-06T20:22:19.482Z,21.16
2022-09-06T20:24:47.979Z,21.21
2022-09-06T20:27:15.992Z,21.40
2022-09-06T20:29:43.898Z,21.21
2022-09-06T20:32:15.384Z,21.22
2022-09-06T20:34:43.407Z,21.06
2022-09-06T20:37:18.679Z,21.09
2022-09-06T20:39:47.564Z,20.99
2022-09-06T20:42:15.523Z,20.82
2022-09-06T20:44:45.605Z,21.12
2022-09-06T20:47:14.734Z,20.95
2022-09-06T20:49:45.503Z,21.04
2022-09-06T20:52:13.247Z,20.75
2022-09-06T20:54:41.023Z,20.41
2022-09-06T20:57:08.749Z,20.51
2022-09-06T20:59:38.847Z,20.61
2022-09-06T21:02:06.734Z,20.45
2022-09-06T21:04:35.981Z,20.16
2022-09-06T21:07:17.162Z,20.22
2022-09-06T21:09:47.924Z,20.39
2022-09-06T21:12:17.421Z,20.54
2022-09-06T21:14:45.532Z,20.78
2022-09-06T21:17:13.281Z,20.64
2022-09-06T21:19:44.522Z,20.61
2022-09-06T21:22:12.260Z,20.56
2022-09-06T21:24:40.373Z,20.37
2022-09-06T21:27:08.119Z,20.52
2022-09-06T21:29:35.778Z,20.75
2022-09-06T21:32:03.676Z,21.12
2022-09-06T21:34:31.406Z,20.87
2022-09-06T21:37:00.518Z,20.84
2022-09-06T21:39:28.182Z,20.92
2022-09-06T21:41:56.129Z,20.86
2022-09-06T21:44:23.900Z,20.52
2022-09-06T21:46:51.711Z,20.32
2022-09-06T21:49:19.485Z,20.22
2022-09-06T21:51:47.311Z,20.49
2022-09-06T21:54:16.498Z,20.13
2022-09-06T21:56:46.263Z,20.09
2022-09-06T21:59:18.854Z,19.84
2022-09-06T22:01:46.898Z,19.65
2022-09-06T22:04:15.018Z,20.10
2022-09-06T22:06:42.663Z,20.24
2022-09-06T22:09:11.488Z,19.88
2022-09-06T22:11:41.650Z,19.99
2022-09-06T22:14:10.753Z,20.01
2022-09-06T22:16:39.283Z,19.59
2022-09-06T22:19:08.546Z,19.68
2022-09-06T22:21:36.741Z,19.88
2022-09-06T22:24:05.486Z,19.98
2022-09-06T22:26:34.911Z,19.85
2022-09-06T22:29:06.072Z,20.12
2022-09-06T22:31:34.291Z,20.36
2022-09-06T22:34:02.502Z,20.64
2022-09-06T22:36:30.449Z,20.08
2022-09-06T22:39:01.031Z,20.31
2022-09-06T22:41:35.879Z,20.45
2022-09-06T22:44:05.381Z,20.28
2022-09-06T22:46:33.260Z,19.97
2022-09-06T22:49:07.031Z,20.26
2022-09-06T22:51:34.697Z,20.06
2022-09-06T22:54:02.511Z,20.38
2022-09-06T22:56:32.578Z,20.46
2022-09-06T22:59:02.989Z,20.32
2022-09-06T23:01:38.779Z,20.23
2022-09-06T23:04:07.103Z,20.13
2022-09-06T23:06:37.968Z,20.54
2022-09-06T23:09:05.749Z,20.38
2022-09-06T23:11:34.060Z,20.48
2022-09-06T23:14:02.982Z,20.38
2022-09-06T23:16:30.767Z,20.25
2022-09-06T23:19:03.342Z,20.26
2022-09-06T23:21:35.630Z,20.13
2022-09-06T23:24:03.602Z,19.87
2022-09-06T23:26:32.342Z,19.72
2022-09-06T23:29:00.176Z,20.07
2022-09-06T23:31:29.041Z,20.33
2022-09-06T23:33:57.845Z,20.27
2022-09-06T23:36:27.712Z,20.55
2022-09-06T23:38:55.891Z,20.48
2022-09-06T23:41:23.692Z,20.32
2022-09-06T23:43:52.477Z,20.58
2022-09-06T23:46:30.962Z,20.18
2022-09-06T23:49:02.057Z,20.70
2022-09-06T23:51:34.299Z,20.20
2022-09-06T23:54:05.197Z,20.53
2022-09-06T23:56:35.255Z,20.53
2022-09-06T23:59:04.803Z,20.25
